Time;durP1;ratioP1;P1;durP2;ratioP2;P2;SDS_P1;SDS_P2;PMS_P1;PMS_P2;Temp;Humidity;BMP_temperature;BMP_pressure;BME280_temperature;BME280_humidity;BME280_pressure;Samples;Min_cycle;Max_cycle;Signal;HPM_P1;HPM_P2
2022/06/04 00:08:23;;;;;;;;;;;19.30;1.00;;;;;;5078682;28;19923;-84
2022/06/04 00:22:57;;;;;;;;;;;19.20;1.00;;;;;;5057357;28;19958;-88
2022/06/04 00:25:23;;;;;;;;;;;19.20;1.00;;;;;;5059124;28;20282;-88
2022/06/04 00:34:17;;;;;;;;;;;19.20;1.00;;;;;;5076140;28;19949;-88
2022/06/04 00:46:11;;;;;;;;;;;19.00;1.00;;;;;;5079164;28;20406;-84
2022/06/04 00:51:41;;;;;;;;;;;18.80;1.00;;;;;;5073206;28;20378;-84
2022/06/04 00:54:17;;;;;;;;;;;18.70;1.00;;;;;;5058292;28;19916;-83
2022/06/04 01:08:55;;;;;;;;;;;18.20;1.00;;;;;;5096553;28;19996;-88
2022/06/04 01:29:42;;;;;;;;;;;18.00;1.00;;;;;;5096059;28;19915;-88
2022/06/04 01:32:10;;;;;;;;;;;18.00;1.00;;;;;;5091424;28;19916;-88
2022/06/04 01:46:52;;;;;;;;;;;17.80;1.00;;;;;;5071970;28;19930;-83
2022/06/04 01:55:49;;;;;;;;;;;17.70;1.00;;;;;;5075978;28;20521;-83
2022/06/04 02:01:22;;;;;;;;;;;17.60;1.00;;;;;;5075297;28;19931;-88
2022/06/04 02:09:55;;;;;;;;;;;17.40;1.00;;;;;;5075236;28;20325;-88
2022/06/04 02:15:55;;;;;;;;;;;17.40;1.00;;;;;;5076460;28;19916;-88
2022/06/04 02:21:24;;;;;;;;;;;17.20;1.00;;;;;;5088237;28;19996;-87
2022/06/04 02:23:50;;;;;;;;;;;17.20;1.00;;;;;;5057255;28;19913;-88
2022/06/04 02:29:19;;;;;;;;;;;17.00;1.00;;;;;;5087526;28;19958;-83
2022/06/04 02:35:02;;;;;;;;;;;17.00;1.00;;;;;;5087976;28;20068;-83
2022/06/04 02:40:53;;;;;;;;;;;16.90;1.00;;;;;;5074254;28;19915;-83
2022/06/04 02:46:26;;;;;;;;;;;16.90;1.00;;;;;;5078476;28;20271;-84
2022/06/04 02:49:16;;;;;;;;;;;16.80;1.00;;;;;;5056235;28;19998;-84
2022/06/04 02:51:43;;;;;;;;;;;16.80;1.00;;;;;;5095864;28;19923;-83
2022/06/04 02:54:35;;;;;;;;;;;16.80;1.00;;;;;;5074256;28;19916;-83
2022/06/04 03:00:35;;;;;;;;;;;16.80;1.00;;;;;;5075564;28;19920;-83
2022/06/04 03:06:05;;;;;;;;;;;16.70;1.00;;;;;;5056113;28;19924;-83
2022/06/04 03:11:53;;;;;;;;;;;16.70;1.00;;;;;;5087838;28;20003;-85
2022/06/04 03:17:22;;;;;;;;;;;16.70;1.00;;;;;;5076136;28;19919;-87
2022/06/04 03:25:53;;;;;;;;;;;16.60;1.00;;;;;;5086180;28;19958;-87
2022/06/04 03:28:23;;;;;;;;;;;16.60;1.00;;;;;;5058007;28;19912;-84
2022/06/04 03:36:55;;;;;;;;;;;16.60;1.00;;;;;;5073550;28;19970;-83
2022/06/04 03:45:26;;;;;;;;;;;16.60;1.00;;;;;;5054001;28;19959;-87
2022/06/04 03:51:11;;;;;;;;;;;16.60;1.00;;;;;;5074005;28;19958;-87
2022/06/04 03:56:40;;;;;;;;;;;16.60;1.00;;;;;;5089263;28;20429;-87
2022/06/04 04:02:09;;;;;;;;;;;16.70;1.00;;;;;;5079623;28;19919;-83
2022/06/04 04:07:37;;;;;;;;;;;16.70;1.00;;;;;;5067785;28;19962;-83
2022/06/04 04:16:10;;;;;;;;;;;16.90;1.00;;;;;;5077524;28;19915;-87
2022/06/04 04:21:40;;;;;;;;;;;17.00;1.00;;;;;;5077331;28;19957;-87
2022/06/04 04:30:14;;;;;;;;;;;17.00;1.00;;;;;;5059178;28;20283;-87
2022/06/04 04:42:05;;;;;;;;;;;17.20;1.00;;;;;;5076753;28;20401;-87
2022/06/04 04:44:59;;;;;;;;;;;17.30;1.00;;;;;;5067092;28;19994;-83
2022/06/04 04:47:37;;;;;;;;;;;17.40;1.00;;;;;;5098336;28;19916;-83
2022/06/04 04:53:08;;;;;;;;;;;17.70;1.00;;;;;;5065146;28;19924;-83
2022/06/04 05:05:11;;;;;;;;;;;18.70;1.00;;;;;;5075795;28;19920;-80
2022/06/04 05:07:37;;;;;;;;;;;18.80;1.00;;;;;;5073125;28;20103;-80
2022/06/04 05:10:03;;;;;;;;;;;19.10;1.00;;;;;;5085388;28;19908;-80
2022/06/04 05:12:30;;;;;;;;;;;19.20;1.00;;;;;;5056923;28;19957;-80
2022/06/04 05:14:55;;;;;;;;;;;19.30;1.00;;;;;;5070643;28;19955;-80
2022/06/04 05:20:24;;;;;;;;;;;19.60;1.00;;;;;;5069192;28;20283;-79
2022/06/04 05:25:59;;;;;;;;;;;19.90;1.00;;;;;;5075955;28;19919;-79
2022/06/04 05:28:25;;;;;;;;;;;20.10;1.00;;;;;;5089087;28;20007;-79
2022/06/04 05:30:53;;;;;;;;;;;20.20;1.00;;;;;;5075647;28;19908;-89
2022/06/04 05:36:23;;;;;;;;;;;20.60;1.00;;;;;;5077802;28;19915;-89
2022/06/04 05:38:49;;;;;;;;;;;20.80;1.00;;;;;;5068938;28;19916;-88
2022/06/04 05:41:23;;;;;;;;;;;20.90;1.00;;;;;;5073514;28;19915;-89
2022/06/04 05:43:59;;;;;;;;;;;21.10;1.00;;;;;;5061524;28;19986;-83
2022/06/04 05:46:53;;;;;;;;;;;21.30;1.00;;;;;;5057204;28;19918;-82
2022/06/04 05:52:23;;;;;;;;;;;21.50;99.90;;;;;;5090957;28;19919;-83
2022/06/04 05:54:49;;;;;;;;;;;21.70;99.90;;;;;;5065415;28;19952;-82
2022/06/04 06:00:23;;;;;;;;;;;21.80;99.90;;;;;;5054745;28;19916;-82
2022/06/04 06:02:49;;;;;;;;;;;22.00;99.90;;;;;;5072953;28;19978;-83
2022/06/04 06:08:17;;;;;;;;;;;22.10;99.90;;;;;;5074706;28;19965;-82
2022/06/04 06:16:49;;;;;;;;;;;22.30;99.90;;;;;;5081102;28;20398;-79
2022/06/04 06:19:16;;;;;;;;;;;22.50;99.90;;;;;;5083650;28;20280;-79
2022/06/04 06:27:53;;;;;;;;;;;22.80;99.90;;;;;;5093098;28;19919;-79
2022/06/04 06:33:35;;;;;;;;;;;22.90;99.90;;;;;;5073626;28;19935;-79
2022/06/04 06:36:18;;;;;;;;;;;22.80;99.90;;;;;;5087535;28;19908;-79
2022/06/04 06:41:46;;;;;;;;;;;23.00;99.90;;;;;;5079269;28;19967;-79
2022/06/04 06:47:15;;;;;;;;;;;23.00;99.90;;;;;;5078226;28;19924;-76
2022/06/04 06:52:43;;;;;;;;;;;23.30;99.90;;;;;;5078175;28;20007;-80
2022/06/04 06:55:09;;;;;;;;;;;23.50;99.90;;;;;;5077489;28;19951;-79
2022/06/04 06:57:35;;;;;;;;;;;23.60;99.90;;;;;;5079850;28;20007;-79
2022/06/04 07:00:05;;;;;;;;;;;23.70;99.90;;;;;;5090976;28;19908;-79
2022/06/04 07:08:38;;;;;;;;;;;24.10;99.90;;;;;;5074360;28;20371;-79
2022/06/04 07:14:07;;;;;;;;;;;24.20;99.90;;;;;;5070261;28;19954;-79
2022/06/04 07:16:33;;;;;;;;;;;24.30;99.90;;;;;;5074508;28;19908;-79
2022/06/04 07:19:06;;;;;;;;;;;24.50;99.90;;;;;;5085620;28;19914;-79
2022/06/04 07:30:40;;;;;;;;;;;24.90;99.90;;;;;;5070366;28;19916;-79
2022/06/04 07:33:10;;;;;;;;;;;24.90;99.90;;;;;;5075544;28;20291;-80
2022/06/04 07:35:48;;;;;;;;;;;24.90;99.90;;;;;;5073683;28;19908;-79
2022/06/04 07:41:17;;;;;;;;;;;25.00;99.90;;;;;;5086722;28;19927;-79
2022/06/04 07:43:56;;;;;;;;;;;25.10;99.90;;;;;;5080438;28;19909;-80
2022/06/04 07:46:30;;;;;;;;;;;25.20;99.90;;;;;;5090819;28;20015;-79
2022/06/04 07:49:16;;;;;;;;;;;25.30;99.90;;;;;;5090614;28;19909;-79
2022/06/04 07:52:05;;;;;;;;;;;25.30;99.90;;;;;;5077158;28;19923;-80
2022/06/04 07:55:06;;;;;;;;;;;25.40;99.90;;;;;;5071795;28;20001;-79
2022/06/04 07:57:59;;;;;;;;;;;25.60;99.90;;;;;;5083578;28;19912;-79
2022/06/04 08:03:53;;;;;;;;;;;25.90;99.90;;;;;;5082273;28;20276;-80
2022/06/04 08:09:35;;;;;;;;;;;26.20;99.90;;;;;;5085451;28;19920;-80
2022/06/04 08:12:35;;;;;;;;;;;26.20;99.90;;;;;;5078958;28;19913;-79
2022/06/04 08:18:29;;;;;;;;;;;26.50;99.90;;;;;;5080804;28;20387;-80
2022/06/04 08:21:17;;;;;;;;;;;26.70;99.90;;;;;;5071695;28;19965;-80
2022/06/04 08:26:58;;;;;;;;;;;26.90;99.90;;;;;;5077356;28;19923;-80
2022/06/04 08:29:37;;;;;;;;;;;27.30;99.90;;;;;;5090691;28;19938;-80
2022/06/04 08:32:12;;;;;;;;;;;27.40;99.90;;;;;;5083290;28;19931;-80
2022/06/04 08:34:37;;;;;;;;;;;27.50;99.90;;;;;;5089861;28;19958;-80
2022/06/04 08:40:06;;;;;;;;;;;27.90;99.90;;;;;;5055992;28;20383;-80
2022/06/04 08:42:56;;;;;;;;;;;28.10;99.90;;;;;;5070395;28;19912;-81
2022/06/04 08:45:37;;;;;;;;;;;28.10;99.90;;;;;;5088200;28;19915;-80
2022/06/04 08:48:17;;;;;;;;;;;28.30;99.90;;;;;;5063658;28;19912;-84
2022/06/04 08:50:54;;;;;;;;;;;28.30;99.90;;;;;;5094178;28;20371;-84
2022/06/04 08:53:47;;;;;;;;;;;28.20;99.90;;;;;;5066476;28;20382;-84
2022/06/04 09:02:28;;;;;;;;;;;27.90;99.90;;;;;;5091235;28;19916;-83
2022/06/04 09:05:31;;;;;;;;;;;27.90;99.90;;;;;;5088935;28;19911;-83
2022/06/04 09:11:01;;;;;;;;;;;28.10;99.90;;;;;;5068224;28;19982;-78
2022/06/04 09:13:48;;;;;;;;;;;28.00;99.90;;;;;;5088821;28;19935;-78
2022/06/04 09:22:53;;;;;;;;;;;28.40;99.90;;;;;;5074352;28;19916;-78
2022/06/04 09:31:35;;;;;;;;;;;29.00;99.90;;;;;;5077934;28;19915;-78
2022/06/04 09:40:06;;;;;;;;;;;29.80;99.90;;;;;;5070223;28;19923;-79
2022/06/04 09:42:35;;;;;;;;;;;29.90;99.90;;;;;;5093652;28;19922;-88
2022/06/04 09:45:02;;;;;;;;;;;30.10;99.90;;;;;;5075737;28;19987;-88
2022/06/04 09:47:35;;;;;;;;;;;30.10;99.90;;;;;;5061568;28;19919;-84
2022/06/04 09:50:35;;;;;;;;;;;30.20;99.90;;;;;;5074520;28;20007;-84
2022/06/04 09:53:23;;;;;;;;;;;30.10;99.90;;;;;;5042101;28;20301;-85
2022/06/04 09:59:18;;;;;;;;;;;30.00;99.90;;;;;;5076018;28;20333;-83
2022/06/04 10:02:13;;;;;;;;;;;30.30;99.90;;;;;;5074003;28;19919;-82
2022/06/04 10:13:48;;;;;;;;;;;30.50;99.90;;;;;;5024662;28;19920;-83
2022/06/04 10:22:23;;;;;;;;;;;30.90;99.90;;;;;;5033017;28;19919;-80
2022/06/04 10:27:54;;;;;;;;;;;30.70;99.90;;;;;;5032841;28;19923;-82
2022/06/04 10:33:55;;;;;;;;;;;30.40;99.90;;;;;;5044989;28;19915;-80
2022/06/04 10:36:35;;;;;;;;;;;30.40;99.90;;;;;;4960144;28;20388;-82
2022/06/04 10:42:32;;;;;;;;;;;30.30;99.90;;;;;;4986464;28;19924;-80
2022/06/04 10:45:26;;;;;;;;;;;30.40;99.90;;;;;;4943299;29;19919;-80
2022/06/04 10:48:25;;;;;;;;;;;30.50;99.90;;;;;;4933238;29;19927;-79
2022/06/04 10:53:50;;;;;;;;;;;30.70;99.90;;;;;;4901496;29;20489;-78
2022/06/04 10:56:35;;;;;;;;;;;30.80;99.90;;;;;;4915564;29;19978;-78
2022/06/04 10:59:23;;;;;;;;;;;30.90;99.90;;;;;;4910647;29;19921;-80
2022/06/04 11:02:25;;;;;;;;;;;31.00;99.90;;;;;;4909425;29;20022;-79
2022/06/04 11:05:05;;;;;;;;;;;31.10;99.90;;;;;;4849845;29;20425;-80
2022/06/04 11:08:05;;;;;;;;;;;31.20;99.90;;;;;;4847473;29;19924;-80
2022/06/04 11:11:05;;;;;;;;;;;31.20;99.90;;;;;;4855239;29;19912;-82
2022/06/04 11:13:34;;;;;;;;;;;31.20;99.90;;;;;;4871965;29;19920;-80
2022/06/04 11:16:05;;;;;;;;;;;31.30;99.90;;;;;;4873878;29;19916;-81
2022/06/04 11:18:54;;;;;;;;;;;31.30;99.90;;;;;;4872921;29;20368;-78
2022/06/04 11:21:35;;;;;;;;;;;31.40;99.90;;;;;;4867959;29;20304;-79
2022/06/04 11:24:19;;;;;;;;;;;31.40;99.90;;;;;;4887002;29;19954;-80
2022/06/04 11:27:07;;;;;;;;;;;31.60;99.90;;;;;;4996278;28;21404;-80
2022/06/04 11:29:34;;;;;;;;;;;31.80;99.90;;;;;;5024523;28;20004;-79
2022/06/04 11:35:23;;;;;;;;;;;32.10;99.90;;;;;;5015506;28;19960;-80
2022/06/04 11:40:59;;;;;;;;;;;32.40;99.90;;;;;;5077120;28;19923;-81
2022/06/04 11:46:43;;;;;;;;;;;32.60;99.90;;;;;;5093837;28;20013;-79
2022/06/04 11:49:16;;;;;;;;;;;32.10;99.90;;;;;;5085780;28;19908;-79
2022/06/04 12:04:08;;;;;;;;;;;30.10;99.90;;;;;;5089965;28;19915;-78
2022/06/04 12:06:35;;;;;;;;;;;29.70;99.90;;;;;;5097385;28;20287;-78
2022/06/04 12:09:21;;;;;;;;;;;29.40;99.90;;;;;;5076416;28;20260;-78
2022/06/04 12:12:11;;;;;;;;;;;29.00;99.90;;;;;;5078904;28;19916;-78
2022/06/04 12:14:43;;;;;;;;;;;28.70;99.90;;;;;;5088925;28;19943;-78
2022/06/04 12:17:35;;;;;;;;;;;28.40;99.90;;;;;;5090217;28;19962;-78
2022/06/04 12:26:17;;;;;;;;;;;27.60;99.90;;;;;;5076091;28;19975;-77
2022/06/04 12:28:54;;;;;;;;;;;27.40;99.90;;;;;;5089696;28;19908;-77
2022/06/04 12:31:36;;;;;;;;;;;27.30;99.90;;;;;;5089928;28;19965;-77
2022/06/04 12:34:21;;;;;;;;;;;27.30;99.90;;;;;;5097415;28;19939;-79
2022/06/04 12:37:19;;;;;;;;;;;27.30;99.90;;;;;;5082786;28;19912;-79
2022/06/04 12:39:47;;;;;;;;;;;27.50;99.90;;;;;;5091575;28;19946;-80
2022/06/04 12:42:20;;;;;;;;;;;27.70;99.90;;;;;;5080266;28;19969;-79
2022/06/04 12:44:57;;;;;;;;;;;27.60;99.90;;;;;;5085172;28;19957;-79
2022/06/04 12:47:26;;;;;;;;;;;27.70;99.90;;;;;;5095584;28;19912;-79
2022/06/04 12:49:58;;;;;;;;;;;28.00;99.90;;;;;;5081086;28;19995;-79
2022/06/04 12:52:44;;;;;;;;;;;28.50;99.90;;;;;;5083899;28;20003;-79
2022/06/04 12:55:29;;;;;;;;;;;28.80;99.90;;;;;;5080863;28;20356;-79
2022/06/04 12:58:01;;;;;;;;;;;29.20;99.90;;;;;;5096199;28;20371;-79
2022/06/04 13:00:32;;;;;;;;;;;29.40;99.90;;;;;;5086040;28;19913;-79
2022/06/04 13:03:11;;;;;;;;;;;29.70;99.90;;;;;;5088870;28;19966;-79
2022/06/04 13:05:59;;;;;;;;;;;29.90;99.90;;;;;;5088586;28;20413;-79
2022/06/04 13:08:24;;;;;;;;;;;30.00;99.90;;;;;;5084995;28;19934;-79
2022/06/04 13:14:09;;;;;;;;;;;30.60;99.90;;;;;;5087945;28;20482;-79
2022/06/04 13:16:45;;;;;;;;;;;30.80;99.90;;;;;;5095829;28;19915;-79
2022/06/04 13:19:16;;;;;;;;;;;30.90;99.90;;;;;;5090682;28;20245;-80
2022/06/04 13:22:05;;;;;;;;;;;31.00;99.90;;;;;;5075847;28;19908;-79
2022/06/04 13:24:37;;;;;;;;;;;31.00;99.90;;;;;;5075380;28;20014;-79
2022/06/04 13:27:10;;;;;;;;;;;31.10;99.90;;;;;;5088696;28;19912;-79
2022/06/04 13:36:05;;;;;;;;;;;31.50;99.90;;;;;;5071554;28;19914;-79
2022/06/04 13:38:37;;;;;;;;;;;31.30;99.90;;;;;;5076563;28;20371;-79
2022/06/04 13:41:04;;;;;;;;;;;31.10;99.90;;;;;;5094417;28;19951;-79
2022/06/04 13:43:38;;;;;;;;;;;30.80;99.90;;;;;;5089136;28;19909;-79
2022/06/04 13:46:36;;;;;;;;;;;30.70;99.90;;;;;;5088700;28;19912;-79
2022/06/04 13:49:13;;;;;;;;;;;30.60;99.90;;;;;;5074371;28;19920;-79
2022/06/04 13:51:55;;;;;;;;;;;30.60;99.90;;;;;;5082641;28;19955;-77
2022/06/04 13:54:27;;;;;;;;;;;30.70;99.90;;;;;;5079705;28;19912;-77
2022/06/04 13:56:53;;;;;;;;;;;30.80;99.90;;;;;;5074468;28;19909;-77
2022/06/04 13:59:24;;;;;;;;;;;31.10;99.90;;;;;;5075933;28;20403;-77
2022/06/04 14:02:11;;;;;;;;;;;31.20;99.90;;;;;;5078398;28;19913;-78
2022/06/04 14:11:06;;;;;;;;;;;31.60;99.90;;;;;;5074140;28;19936;-79
2022/06/04 14:16:35;;;;;;;;;;;32.20;99.90;;;;;;5059517;28;20054;-79
2022/06/04 14:19:10;;;;;;;;;;;32.20;99.90;;;;;;5074111;28;20287;-79
2022/06/04 14:21:36;;;;;;;;;;;32.20;99.90;;;;;;5074322;28;20003;-76
2022/06/04 14:24:14;;;;;;;;;;;32.20;99.90;;;;;;5073916;28;19958;-77
2022/06/04 14:27:00;;;;;;;;;;;32.10;99.90;;;;;;5086080;28;19923;-77
2022/06/04 14:32:48;;;;;;;;;;;32.20;99.90;;;;;;5073853;28;20389;-78
2022/06/04 14:38:31;;;;;;;;;;;32.30;99.90;;;;;;5080772;28;20024;-77
2022/06/04 14:41:12;;;;;;;;;;;32.10;99.90;;;;;;5083359;28;20387;-78
2022/06/04 14:43:53;;;;;;;;;;;32.10;99.90;;;;;;5080475;28;19920;-75
2022/06/04 14:46:48;;;;;;;;;;;31.90;99.90;;;;;;5080433;28;19908;-75
2022/06/04 14:49:29;;;;;;;;;;;31.90;99.90;;;;;;5082488;28;19919;-75
2022/06/04 14:52:07;;;;;;;;;;;31.90;99.90;;;;;;5073257;28;19916;-74
2022/06/04 14:54:34;;;;;;;;;;;32.00;99.90;;;;;;5080528;28;19912;-75
2022/06/04 14:57:08;;;;;;;;;;;32.00;99.90;;;;;;5076819;28;20007;-75
2022/06/04 14:59:47;;;;;;;;;;;32.10;99.90;;;;;;5079907;28;19958;-74
2022/06/04 15:02:34;;;;;;;;;;;32.00;99.90;;;;;;5083285;28;20350;-75
2022/06/04 15:04:59;;;;;;;;;;;32.00;99.90;;;;;;5094328;28;20008;-75
2022/06/04 15:10:46;;;;;;;;;;;33.60;99.90;;;;;;5073425;28;20417;-78
2022/06/04 15:13:44;;;;;;;;;;;35.10;99.90;;;;;;5053712;28;19917;-81
2022/06/04 15:19:12;;;;;;;;;;;38.70;99.90;;;;;;5044564;28;19955;-81
2022/06/04 15:27:58;;;;;;;;;;;44.00;99.90;;;;;;5031308;28;20336;-81
2022/06/04 15:36:16;;;;;;;;;;;43.80;99.90;;;;;;5031114;28;19913;-77
2022/06/04 15:39:11;;;;;;;;;;;44.80;99.90;;;;;;5031380;28;19940;-77
2022/06/04 15:41:59;;;;;;;;;;;46.00;99.90;;;;;;5031134;28;19949;-77
2022/06/04 15:47:29;;;;;;;;;;;45.20;99.90;;;;;;5037895;28;19951;-77
2022/06/04 15:59:12;;;;;;;;;;;41.00;99.90;;;;;;5072111;28;19955;-77
2022/06/04 16:05:00;;;;;;;;;;;38.60;99.90;;;;;;5088395;28;19939;-77
2022/06/04 16:10:35;;;;;;;;;;;38.50;99.90;;;;;;5075904;28;19978;-78
2022/06/04 16:13:24;;;;;;;;;;;37.60;99.90;;;;;;5076710;28;20344;-78
2022/06/04 16:16:07;;;;;;;;;;;37.20;99.90;;;;;;5089523;28;20430;-78
2022/06/04 16:21:43;;;;;;;;;;;35.80;99.90;;;;;;5088820;28;19919;-75
2022/06/04 16:24:32;;;;;;;;;;;34.90;99.90;;;;;;5073529;28;19916;-75
2022/06/04 16:27:01;;;;;;;;;;;34.20;99.90;;;;;;5024900;28;19932;-75
2022/06/04 16:29:53;;;;;;;;;;;33.60;99.90;;;;;;5034408;28;19917;-75
2022/06/04 16:32:55;;;;;;;;;;;33.10;99.90;;;;;;5034171;28;19913;-73
2022/06/04 16:35:50;;;;;;;;;;;32.50;99.90;;;;;;5049252;28;19948;-76
2022/06/04 16:43:33;;;;;;;;;;;31.10;99.90;;;;;;5025546;28;19963;-78
2022/06/04 16:46:00;;;;;;;;;;;30.80;99.90;;;;;;5031870;28;19913;-78
2022/06/04 16:48:30;;;;;;;;;;;30.60;99.90;;;;;;5032081;28;19917;-77
2022/06/04 16:50:57;;;;;;;;;;;30.30;99.90;;;;;;5031806;28;19920;-77
2022/06/04 16:53:24;;;;;;;;;;;30.20;99.90;;;;;;5037991;28;19917;-77
2022/06/04 16:55:50;;;;;;;;;;;30.20;99.90;;;;;;5032340;28;20364;-76
2022/06/04 16:58:15;;;;;;;;;;;31.40;99.90;;;;;;5038306;28;19913;-77
2022/06/04 17:00:50;;;;;;;;;;;33.00;99.90;;;;;;5047437;28;20020;-76
2022/06/04 17:03:22;;;;;;;;;;;33.70;99.90;;;;;;5036132;28;20355;-76
2022/06/04 17:05:59;;;;;;;;;;;33.40;99.90;;;;;;5087221;28;20375;-76
2022/06/04 17:08:28;;;;;;;;;;;33.70;99.90;;;;;;5095558;28;20288;-77
2022/06/04 17:10:56;;;;;;;;;;;35.60;99.90;;;;;;5094808;28;20002;-77
2022/06/04 17:13:31;;;;;;;;;;;37.50;99.90;;;;;;5076409;28;19908;-77
2022/06/04 17:16:04;;;;;;;;;;;37.40;99.90;;;;;;5091494;28;20379;-80
2022/06/04 17:18:38;;;;;;;;;;;36.70;99.90;;;;;;5094943;28;20006;-83
2022/06/04 17:21:25;;;;;;;;;;;37.60;99.90;;;;;;5094658;28;20252;-83
2022/06/04 17:23:56;;;;;;;;;;;39.20;99.90;;;;;;5095463;28;20554;-84
2022/06/04 17:26:27;;;;;;;;;;;40.80;99.90;;;;;;5066737;28;20321;-83
2022/06/04 17:28:59;;;;;;;;;;;42.20;99.90;;;;;;5091926;28;19915;-84
2022/06/04 17:31:33;;;;;;;;;;;43.30;99.90;;;;;;5094849;28;19909;-84
2022/06/04 17:34:08;;;;;;;;;;;43.70;99.90;;;;;;5094614;28;19998;-84
2022/06/04 17:36:50;;;;;;;;;;;44.30;99.90;;;;;;5094673;28;19930;-84
2022/06/04 17:39:25;;;;;;;;;;;44.20;99.90;;;;;;5089340;28;19912;-85
2022/06/04 17:41:52;;;;;;;;;;;43.80;99.90;;;;;;5091426;28;19908;-85
2022/06/04 17:44:18;;;;;;;;;;;42.70;99.90;;;;;;5094953;28;19927;-85
2022/06/04 17:46:45;;;;;;;;;;;41.40;99.90;;;;;;5080509;28;19912;-84
2022/06/04 17:49:12;;;;;;;;;;;39.90;99.90;;;;;;5093796;28;19931;-85
2022/06/04 17:51:38;;;;;;;;;;;38.30;99.90;;;;;;5069154;28;20333;-84
2022/06/04 17:54:03;;;;;;;;;;;36.90;99.90;;;;;;5082905;28;19912;-78
2022/06/04 17:56:29;;;;;;;;;;;35.70;99.90;;;;;;5092269;28;20047;-79
2022/06/04 17:58:54;;;;;;;;;;;34.60;99.90;;;;;;5093081;28;19915;-79
2022/06/04 18:01:20;;;;;;;;;;;33.60;99.90;;;;;;5089121;28;19915;-79
2022/06/04 18:03:46;;;;;;;;;;;32.80;99.90;;;;;;5085244;28;19970;-78
2022/06/04 18:06:12;;;;;;;;;;;31.90;99.90;;;;;;5093943;28;19958;-78
2022/06/04 18:08:38;;;;;;;;;;;31.20;99.90;;;;;;5082981;28;20322;-79
2022/06/04 18:11:03;;;;;;;;;;;30.70;99.90;;;;;;5091989;28;19909;-79
2022/06/04 18:13:29;;;;;;;;;;;30.10;99.90;;;;;;5085206;28;19954;-79
2022/06/04 18:15:54;;;;;;;;;;;29.60;99.90;;;;;;5075626;28;19916;-78
2022/06/04 18:18:20;;;;;;;;;;;29.20;99.90;;;;;;5083074;28;19912;-78
2022/06/04 18:20:46;;;;;;;;;;;28.70;99.90;;;;;;5080667;28;19955;-80
2022/06/04 18:23:13;;;;;;;;;;;28.30;99.90;;;;;;5078431;28;19918;-85
2022/06/04 18:25:41;;;;;;;;;;;27.90;99.90;;;;;;5078110;28;19919;-85
2022/06/04 18:28:08;;;;;;;;;;;27.60;99.90;;;;;;5082815;28;19913;-86
2022/06/04 18:30:34;;;;;;;;;;;27.20;99.90;;;;;;5091613;28;19961;-83
2022/06/04 18:32:59;;;;;;;;;;;26.90;99.90;;;;;;5093836;28;20002;-81
2022/06/04 18:35:25;;;;;;;;;;;26.70;99.90;;;;;;5093614;28;19908;-82
2022/06/04 18:37:51;;;;;;;;;;;26.40;99.90;;;;;;5094350;28;19908;-80
2022/06/04 18:40:17;;;;;;;;;;;26.20;99.90;;;;;;5090174;28;19916;-81
2022/06/04 18:56:29;;;;;;;;;;;25.20;99.90;;;;;;5091087;28;19919;-76
2022/06/04 18:59:00;;;;;;;;;;;25.00;99.90;;;;;;5093368;28;19943;-76
2022/06/04 19:01:31;;;;;;;;;;;24.80;99.90;;;;;;5092818;28;19908;-77
2022/06/04 19:03:56;;;;;;;;;;;24.70;99.90;;;;;;5093408;28;20355;-78
2022/06/04 19:06:22;;;;;;;;;;;24.50;99.90;;;;;;5091626;28;19916;-79
2022/06/04 19:08:53;;;;;;;;;;;24.40;99.90;;;;;;5093690;28;19924;-84
2022/06/04 19:14:03;;;;;;;;;;;24.10;99.90;;;;;;5088908;28;19955;-84
2022/06/04 19:16:31;;;;;;;;;;;23.90;99.90;;;;;;5056223;28;19947;-84
2022/06/04 19:19:02;;;;;;;;;;;23.70;99.90;;;;;;5053485;28;20356;-85
2022/06/04 19:24:36;;;;;;;;;;;23.50;99.90;;;;;;5078150;28;19958;-84
2022/06/04 19:27:08;;;;;;;;;;;23.30;99.90;;;;;;5089551;28;19959;-84
2022/06/04 19:29:34;;;;;;;;;;;23.20;99.90;;;;;;5082201;28;19912;-84
2022/06/04 19:32:00;;;;;;;;;;;23.00;99.90;;;;;;5063746;28;19920;-84
2022/06/04 19:34:25;;;;;;;;;;;22.90;99.90;;;;;;5093176;28;20232;-84
2022/06/04 19:36:51;;;;;;;;;;;22.80;99.90;;;;;;5074487;28;19909;-84
2022/06/04 19:39:17;;;;;;;;;;;22.60;99.90;;;;;;5076543;28;20006;-84
2022/06/04 19:41:42;;;;;;;;;;;22.50;99.90;;;;;;5068366;28;19952;-84
2022/06/04 19:44:17;;;;;;;;;;;22.40;99.90;;;;;;5090369;28;19926;-84
2022/06/04 19:46:50;;;;;;;;;;;22.30;99.90;;;;;;5084647;28;20270;-84
2022/06/04 19:49:20;;;;;;;;;;;22.10;99.90;;;;;;5064775;28;20003;-84
2022/06/04 19:51:45;;;;;;;;;;;22.00;99.90;;;;;;5085894;28;19985;-84
2022/06/04 19:56:55;;;;;;;;;;;21.90;99.90;;;;;;5097138;28;20271;-84
2022/06/04 19:59:21;;;;;;;;;;;21.80;99.90;;;;;;5094439;28;19908;-84
2022/06/04 20:01:47;;;;;;;;;;;21.70;99.90;;;;;;5091396;28;19927;-84
2022/06/04 20:04:13;;;;;;;;;;;21.60;99.90;;;;;;5063510;28;20423;-84
2022/06/04 20:06:39;;;;;;;;;;;21.50;99.90;;;;;;5078386;28;19962;-84
2022/06/04 20:09:04;;;;;;;;;;;21.40;99.90;;;;;;5085724;28;19948;-79
2022/06/04 20:11:31;;;;;;;;;;;21.30;99.90;;;;;;5092839;28;19909;-79
2022/06/04 20:13:56;;;;;;;;;;;21.20;99.90;;;;;;5109355;28;19915;-79
2022/06/04 20:16:22;;;;;;;;;;;21.20;99.90;;;;;;5096322;28;20314;-79
2022/06/04 20:18:47;;;;;;;;;;;21.10;99.90;;;;;;5080715;28;20299;-78
2022/06/04 20:21:15;;;;;;;;;;;21.00;99.90;;;;;;5080479;28;19958;-79
2022/06/04 20:23:41;;;;;;;;;;;21.00;99.90;;;;;;5086420;28;20309;-83
2022/06/04 20:26:08;;;;;;;;;;;20.90;99.90;;;;;;5084544;28;19959;-84
2022/06/04 20:28:34;;;;;;;;;;;20.80;99.90;;;;;;5090245;28;20077;-84
2022/06/04 20:30:59;;;;;;;;;;;20.70;99.90;;;;;;5090677;28;19908;-84
2022/06/04 20:33:25;;;;;;;;;;;20.70;99.90;;;;;;5077752;28;20441;-84
2022/06/04 20:35:51;;;;;;;;;;;20.60;99.90;;;;;;5074133;28;19940;-84
2022/06/04 20:38:17;;;;;;;;;;;20.60;99.90;;;;;;5062456;28;19927;-84
2022/06/04 20:40:43;;;;;;;;;;;20.50;99.90;;;;;;5089716;28;19912;-84
2022/06/04 20:43:09;;;;;;;;;;;20.50;99.90;;;;;;5086506;28;19920;-84
2022/06/04 20:45:37;;;;;;;;;;;20.40;99.90;;;;;;5095913;28;19912;-84
2022/06/04 20:48:03;;;;;;;;;;;20.30;99.90;;;;;;5087565;28;20283;-84
2022/06/04 20:50:31;;;;;;;;;;;20.30;99.90;;;;;;5064843;28;19912;-84
2022/06/04 20:52:57;;;;;;;;;;;20.20;99.90;;;;;;5068266;28;20291;-84
2022/06/04 20:55:22;;;;;;;;;;;20.20;99.90;;;;;;5075219;28;19912;-84
2022/06/04 20:57:48;;;;;;;;;;;20.10;99.90;;;;;;5087317;28;19970;-84
2022/06/04 21:00:15;;;;;;;;;;;20.00;99.90;;;;;;5095422;28;19915;-84
2022/06/04 21:02:40;;;;;;;;;;;20.00;99.90;;;;;;5095112;28;19908;-84
2022/06/04 21:05:06;;;;;;;;;;;20.00;99.90;;;;;;5077055;28;20014;-84
2022/06/04 21:07:32;;;;;;;;;;;20.00;99.90;;;;;;5070058;28;20283;-83
2022/06/04 21:09:57;;;;;;;;;;;19.90;99.90;;;;;;5069991;28;19912;-83
2022/06/04 21:12:23;;;;;;;;;;;19.90;99.90;;;;;;5060930;28;19908;-84
2022/06/04 21:14:51;;;;;;;;;;;19.90;99.90;;;;;;5091082;28;19935;-83
2022/06/04 21:17:16;;;;;;;;;;;19.90;99.90;;;;;;5059471;28;19913;-85
2022/06/04 21:19:42;;;;;;;;;;;19.80;99.90;;;;;;5076413;28;19965;-84
2022/06/04 21:22:07;;;;;;;;;;;19.80;99.90;;;;;;5081391;28;20020;-83
2022/06/04 21:24:33;;;;;;;;;;;19.80;99.90;;;;;;5093541;28;19915;-83
2022/06/04 21:26:59;;;;;;;;;;;19.70;99.90;;;;;;5089381;28;19961;-83
2022/06/04 21:29:24;;;;;;;;;;;19.70;99.90;;;;;;5075617;28;20421;-84
2022/06/04 21:31:50;;;;;;;;;;;19.70;99.90;;;;;;5075774;28;19966;-83
2022/06/04 21:39:45;;;;;;;;;;;19.50;99.90;;;;;;5062258;28;19916;-83
2022/06/04 21:42:10;;;;;;;;;;;19.50;99.90;;;;;;5083776;28;19929;-83
2022/06/04 21:44:36;;;;;;;;;;;19.50;99.90;;;;;;5076682;28;19977;-83
2022/06/04 21:47:01;;;;;;;;;;;19.40;99.90;;;;;;5075232;28;19923;-83
2022/06/04 21:49:27;;;;;;;;;;;19.40;99.90;;;;;;5075824;28;20363;-83
2022/06/04 21:51:53;;;;;;;;;;;19.40;99.90;;;;;;5074458;28;19916;-84
2022/06/04 21:54:21;;;;;;;;;;;19.40;99.90;;;;;;5076350;28;19983;-79
2022/06/04 21:56:49;;;;;;;;;;;19.40;99.90;;;;;;5081112;28;19916;-79
2022/06/04 21:59:15;;;;;;;;;;;19.30;99.90;;;;;;5094425;28;19908;-78
2022/06/04 22:01:46;;;;;;;;;;;19.30;99.90;;;;;;5081167;28;19963;-78
2022/06/04 22:04:12;;;;;;;;;;;19.20;99.90;;;;;;5094309;28;19908;-78
2022/06/04 22:06:38;;;;;;;;;;;19.20;99.90;;;;;;5081238;28;19936;-78
2022/06/04 22:09:04;;;;;;;;;;;19.20;99.90;;;;;;5069063;28;20271;-79
2022/06/04 22:11:29;;;;;;;;;;;19.10;99.90;;;;;;5082910;28;19913;-83
2022/06/04 22:13:56;;;;;;;;;;;19.10;99.90;;;;;;5087186;28;19912;-84
2022/06/04 22:16:22;;;;;;;;;;;19.10;99.90;;;;;;5083457;28;19918;-83
2022/06/04 22:18:47;;;;;;;;;;;19.00;99.90;;;;;;5094489;28;20298;-84
2022/06/04 22:21:14;;;;;;;;;;;19.00;99.90;;;;;;5069143;28;19919;-84
2022/06/04 22:23:41;;;;;;;;;;;19.00;99.90;;;;;;5058779;28;19959;-84
2022/06/04 22:26:06;;;;;;;;;;;18.90;99.90;;;;;;5084512;28;19912;-79
2022/06/04 22:28:32;;;;;;;;;;;18.90;99.90;;;;;;5078816;28;19924;-78
2022/06/04 22:30:57;;;;;;;;;;;18.90;99.90;;;;;;5090297;28;20032;-78